Time;durP1;ratioP1;P1;durP2;ratioP2;P2;SDS_P1;SDS_P2;PMS_P1;PMS_P2;Temp;Humidity;BMP_temperature;BMP_pressure;BME280_temperature;BME280_humidity;BME280_pressure;Samples;Min_cycle;Max_cycle;Signal;HPM_P1;HPM_P2
2024/01/10 00:01:40;;;;;;;18.73;7.90;;;;;;;-4.92;58.71;100886.41;12235800;19;20011;-83
2024/01/10 00:05:42;;;;;;;19.63;7.72;;;;;;;-4.97;58.75;100883.22;12204221;19;20758;-85
2024/01/10 00:09:45;;;;;;;17.17;8.18;;;;;;;-5.02;58.82;100878.25;12222005;19;20041;-84
2024/01/10 00:13:47;;;;;;;24.48;8.15;;;;;;;-5.04;58.80;100883.72;12217134;19;20652;-84
2024/01/10 00:17:49;;;;;;;17.35;7.88;;;;;;;-5.09;59.25;100868.94;12196617;19;20011;-87
2024/01/10 00:21:51;;;;;;;19.02;7.25;;;;;;;-5.08;59.20;100874.22;12213739;19;20015;-84
2024/01/10 00:25:53;;;;;;;23.75;8.93;;;;;;;-5.10;59.13;100865.41;12218419;19;20037;-84
2024/01/10 00:29:56;;;;;;;19.83;8.02;;;;;;;-5.08;59.18;100868.00;12195749;19;20066;-83
2024/01/10 00:33:58;;;;;;;23.25;9.20;;;;;;;-5.12;59.28;100861.97;12215085;19;20010;-84
2024/01/10 00:38:00;;;;;;;17.83;8.20;;;;;;;-5.13;59.75;100862.97;12220772;19;20006;-85
2024/01/10 00:42:02;;;;;;;19.55;8.95;;;;;;;-5.12;59.68;100858.44;12209245;19;20027;-85
2024/01/10 00:46:04;;;;;;;16.67;7.95;;;;;;;-5.10;59.65;100861.88;12217478;19;20018;-85
2024/01/10 00:50:06;;;;;;;22.35;8.23;;;;;;;-5.09;59.91;100848.28;12219040;19;20374;-86
2024/01/10 00:54:08;;;;;;;22.55;8.48;;;;;;;-5.04;59.76;100851.47;12201519;19;20721;-85
2024/01/10 00:58:10;;;;;;;22.58;7.80;;;;;;;-5.01;59.76;100841.47;12220461;19;20011;-86
2024/01/10 01:02:12;;;;;;;24.35;9.35;;;;;;;-4.97;59.33;100841.06;12190218;19;20354;-85
2024/01/10 01:06:14;;;;;;;13.75;6.35;;;;;;;-4.95;59.23;100854.41;12216102;19;20010;-85
2024/01/10 01:10:15;;;;;;;18.92;7.72;;;;;;;-4.93;58.83;100847.09;12213421;19;20007;-86
2024/01/10 01:14:17;;;;;;;21.63;8.10;;;;;;;-4.93;59.08;100850.63;12190971;19;20020;-86
2024/01/10 01:18:19;;;;;;;16.13;6.20;;;;;;;-4.88;58.89;100850.22;12214545;19;20067;-86
2024/01/10 01:22:21;;;;;;;17.35;7.40;;;;;;;-4.85;58.60;100847.28;12217532;19;20038;-84
2024/01/10 01:26:23;;;;;;;22.60;7.77;;;;;;;-4.86;58.75;100838.38;12232677;19;20006;-85
2024/01/10 01:30:25;;;;;;;18.77;7.67;;;;;;;-4.89;58.78;100837.78;12216353;19;20264;-85
2024/01/10 01:34:27;;;;;;;22.33;9.40;;;;;;;-4.92;58.70;100846.94;12208922;19;20014;-86
2024/01/10 01:38:28;;;;;;;22.07;8.70;;;;;;;-4.91;58.90;100850.47;12180730;19;20023;-86
2024/01/10 01:42:30;;;;;;;21.37;7.70;;;;;;;-4.90;58.67;100838.75;12209991;19;20031;-85
2024/01/10 01:46:32;;;;;;;24.83;8.77;;;;;;;-4.91;58.89;100837.91;12205391;19;20254;-85
2024/01/10 01:50:34;;;;;;;17.33;6.88;;;;;;;-4.90;58.93;100836.94;12185673;19;20591;-85
2024/01/10 01:54:36;;;;;;;18.90;7.72;;;;;;;-4.93;59.07;100845.25;12200629;19;20018;-85
2024/01/10 01:58:39;;;;;;;21.73;8.35;;;;;;;-4.94;59.41;100837.28;12206390;19;20014;-85
2024/01/10 02:02:43;;;;;;;19.52;8.63;;;;;;;-4.99;59.28;100835.00;12181104;19;20014;-86
2024/01/10 02:06:45;;;;;;;25.10;9.93;;;;;;;-5.04;59.52;100826.44;12199557;19;20478;-85
2024/01/10 02:10:47;;;;;;;20.60;9.05;;;;;;;-5.10;59.67;100827.78;12205549;19;20017;-84
2024/01/10 02:14:49;;;;;;;21.65;9.63;;;;;;;-5.11;59.86;100827.94;12182351;19;20010;-85
2024/01/10 02:18:51;;;;;;;21.38;9.50;;;;;;;-5.15;60.08;100821.91;12205924;19;20011;-85
2024/01/10 02:22:52;;;;;;;21.05;8.93;;;;;;;-5.15;60.12;100819.22;12203809;19;20006;-85
2024/01/10 02:26:55;;;;;;;24.08;9.88;;;;;;;-5.13;59.99;100819.97;12182144;19;20034;-86
2024/01/10 02:30:57;;;;;;;23.80;9.95;;;;;;;-5.15;59.96;100815.69;12203320;19;20220;-86
2024/01/10 02:34:59;;;;;;;;;;;;;;;-5.16;60.31;100820.22;12205542;19;20038;-85
2024/01/10 02:39:01;;;;;;;18.35;8.82;;;;;;;-5.17;60.46;100815.84;12181070;19;20465;-86
2024/01/10 02:43:03;;;;;;;26.27;8.82;;;;;;;-5.11;60.54;100820.72;12200647;19;20003;-85
2024/01/10 02:47:06;;;;;;;24.75;8.60;;;;;;;-5.02;60.26;100812.88;12200039;19;20078;-85
2024/01/10 02:51:08;;;;;;;18.25;7.80;;;;;;;-4.99;60.16;100802.72;12202405;19;20412;-84
2024/01/10 02:55:10;;;;;;;23.95;10.13;;;;;;;-4.96;60.15;100805.16;12198446;19;20446;-85
2024/01/10 02:59:12;;;;;;;26.85;10.23;;;;;;;-4.98;59.99;100799.06;12182194;19;20026;-85
2024/01/10 03:03:13;;;;;;;22.80;8.30;;;;;;;-4.97;60.05;100797.22;12203758;19;20141;-87
2024/01/10 03:07:15;;;;;;;26.38;9.48;;;;;;;-4.93;59.81;100804.91;12199947;19;20017;-85
2024/01/10 03:11:17;;;;;;;23.58;8.45;;;;;;;-4.85;59.81;100801.56;12180223;19;20006;-85
2024/01/10 03:15:19;;;;;;;26.40;9.77;;;;;;;-4.80;59.64;100799.38;12201707;19;20017;-85
2024/01/10 03:19:21;;;;;;;17.08;9.45;;;;;;;-4.74;59.54;100795.31;12200969;19;20003;-86
2024/01/10 03:23:22;;;;;;;26.40;10.00;;;;;;;-4.74;59.57;100804.25;12175643;19;20014;-85
2024/01/10 03:27:24;;;;;;;20.33;8.15;;;;;;;-4.69;59.65;100799.34;12206885;19;20003;-85
2024/01/10 03:31:28;;;;;;;26.35;9.65;;;;;;;-4.66;59.69;100793.72;12213077;19;20316;-86
2024/01/10 03:35:30;;;;;;;30.20;9.13;;;;;;;-4.72;59.96;100782.63;12190529;19;20018;-85
2024/01/10 03:39:32;;;;;;;27.75;9.38;;;;;;;-4.74;59.79;100796.19;12216738;19;20013;-85
2024/01/10 03:43:34;;;;;;;25.58;10.23;;;;;;;-4.82;59.99;100793.25;12238810;19;20022;-85
2024/01/10 03:47:36;;;;;;;25.67;9.18;;;;;;;-4.86;60.17;100794.50;12217835;19;20038;-86
2024/01/10 03:51:40;;;;;;;18.05;7.72;;;;;;;-4.85;60.66;100791.72;12234750;19;20014;-85
2024/01/10 03:55:42;;;;;;;20.30;9.15;;;;;;;-4.85;60.29;100796.19;12210599;19;20019;-86
2024/01/10 03:59:44;;;;;;;26.63;10.50;;;;;;;-4.87;60.68;100788.28;12186140;19;20010;-85
2024/01/10 04:03:46;;;;;;;27.05;9.02;;;;;;;-4.84;60.54;100785.34;12231040;19;20022;-85
2024/01/10 04:07:48;;;;;;;18.15;9.00;;;;;;;-4.77;60.45;100782.13;12254698;19;20021;-86
2024/01/10 04:11:50;;;;;;;24.83;10.15;;;;;;;-4.73;60.28;100787.16;12210415;19;20011;-85
2024/01/10 04:15:52;;;;;;;23.35;11.30;;;;;;;-4.74;60.52;100784.56;12280257;19;20011;-83
2024/01/10 04:19:54;;;;;;;24.35;9.38;;;;;;;-4.73;60.60;100789.84;12276777;19;20028;-84
2024/01/10 04:23:56;;;;;;;28.60;9.85;;;;;;;-4.74;60.34;100793.50;12204593;19;20010;-84
2024/01/10 04:27:58;;;;;;;27.00;10.45;;;;;;;-4.73;60.27;100794.34;12209818;19;20459;-84
2024/01/10 04:31:59;;;;;;;25.33;9.10;;;;;;;-4.71;60.32;100801.31;12208583;19;20358;-84
2024/01/10 04:36:01;;;;;;;26.53;10.00;;;;;;;-4.73;60.50;100800.59;12184775;19;20039;-84
2024/01/10 04:40:04;;;;;;;20.25;10.18;;;;;;;-4.80;60.36;100804.75;12208191;19;20244;-84
2024/01/10 04:44:09;;;;;;;19.13;9.18;;;;;;;-4.88;60.35;100808.09;12185573;19;20007;-85
2024/01/10 04:48:11;;;;;;;25.92;9.65;;;;;;;-4.90;60.29;100811.88;12208861;19;20014;-85
2024/01/10 04:52:13;;;;;;;27.48;11.15;;;;;;;-4.98;60.62;100812.50;12205851;19;20031;-86
2024/01/10 04:56:15;;;;;;;23.45;9.48;;;;;;;-5.05;61.15;100816.69;12183046;19;20096;-85
2024/01/10 05:00:17;;;;;;;25.60;10.05;;;;;;;-5.11;61.10;100817.19;12207437;19;20007;-85
2024/01/10 05:04:18;;;;;;;24.10;10.85;;;;;;;-5.11;61.50;100819.88;12207323;19;20010;-85
2024/01/10 05:08:20;;;;;;;23.50;9.60;;;;;;;-5.11;61.38;100809.13;12185359;19;20011;-85
2024/01/10 05:12:23;;;;;;;;;;;;;;;-5.09;61.49;100816.03;12210664;19;20015;-85
2024/01/10 05:16:24;;;;;;;25.60;9.50;;;;;;;-5.07;61.22;100808.72;12207512;19;20457;-85
2024/01/10 05:20:26;;;;;;;28.00;9.53;;;;;;;-5.07;61.38;100811.41;12186551;19;20024;-85
2024/01/10 05:24:28;;;;;;;23.55;9.25;;;;;;;-5.09;61.82;100817.88;12202712;19;20075;-85
2024/01/10 05:28:30;;;;;;;25.10;10.17;;;;;;;-5.15;61.94;100811.16;12207680;19;20003;-84
2024/01/10 05:32:31;;;;;;;24.63;9.68;;;;;;;-5.18;61.84;100814.09;12184449;19;20817;-85
2024/01/10 05:36:33;;;;;;;26.52;10.82;;;;;;;-5.16;61.77;100822.91;12205945;19;20011;-85
2024/01/10 05:40:35;;;;;;;23.60;10.83;;;;;;;-5.17;61.84;100820.38;12205959;19;20023;-85
2024/01/10 05:44:37;;;;;;;26.95;10.25;;;;;;;-5.14;62.01;100814.75;12183211;19;20275;-85
2024/01/10 05:48:39;;;;;;;26.00;9.60;;;;;;;-5.14;62.26;100815.59;12206820;19;20031;-85
2024/01/10 05:52:41;;;;;;;24.73;10.43;;;;;;;-5.15;62.62;100813.00;12205392;19;20028;-86
2024/01/10 05:56:42;;;;;;;25.60;10.52;;;;;;;-5.17;62.82;100823.03;12184812;19;20010;-85
2024/01/10 06:00:45;;;;;;;28.85;11.52;;;;;;;-5.19;63.16;100823.16;12212241;19;20011;-85
2024/01/10 06:04:46;;;;;;;22.45;9.60;;;;;;;-5.27;63.29;100815.69;12220166;19;20011;-85
2024/01/10 06:08:48;;;;;;;23.52;9.35;;;;;;;-5.34;63.85;100810.97;12189948;19;20660;-87
2024/01/10 06:12:50;;;;;;;27.07;10.47;;;;;;;-5.39;64.91;100811.31;12223926;19;20024;-84
2024/01/10 06:16:52;;;;;;;28.37;9.97;;;;;;;-5.43;65.20;100811.69;12214961;19;20251;-85
2024/01/10 06:20:57;;;;;;;28.70;11.00;;;;;;;-5.48;65.10;100816.56;12185933;19;20259;-85
2024/01/10 06:24:59;;;;;;;25.55;11.70;;;;;;;-5.55;65.54;100814.38;12207127;19;20030;-86
2024/01/10 06:29:00;;;;;;;29.98;10.70;;;;;;;-5.54;65.60;100817.91;12206265;19;20019;-86
2024/01/10 06:33:02;;;;;;;25.05;9.43;;;;;;;-5.57;66.85;100827.06;12183482;19;20030;-85
2024/01/10 06:37:07;;;;;;;25.48;10.57;;;;;;;-5.50;67.04;100828.31;12206835;19;20031;-85
2024/01/10 06:41:09;;;;;;;32.58;11.43;;;;;;;-5.45;67.66;100830.59;12184418;19;20002;-86
2024/01/10 06:45:12;;;;;;;28.70;11.27;;;;;;;-5.38;67.78;100831.00;12234982;19;20015;-85
2024/01/10 06:49:13;;;;;;;28.80;11.52;;;;;;;-5.35;67.84;100834.28;12233218;19;20017;-87
2024/01/10 06:53:15;;;;;;;22.35;8.15;;;;;;;-5.34;68.49;100835.13;12192077;19;20010;-86
2024/01/10 06:57:17;;;;;;;31.92;10.93;;;;;;;-5.31;68.50;100826.84;12211628;19;20347;-86
2024/01/10 07:01:21;;;;;;;28.05;10.65;;;;;;;-5.33;68.78;100829.63;12209910;19;20010;-86
2024/01/10 07:05:23;;;;;;;33.08;10.93;;;;;;;-5.35;68.64;100836.13;12187992;19;20725;-86
2024/01/10 07:09:25;;;;;;;26.88;11.45;;;;;;;-5.34;68.58;100837.81;12208353;19;20007;-86
2024/01/10 07:13:27;;;;;;;25.55;10.57;;;;;;;-5.35;68.83;100846.88;12207513;19;20011;-86
2024/01/10 07:17:28;;;;;;;23.73;9.77;;;;;;;-5.32;68.66;100847.47;12182700;19;20014;-85
2024/01/10 07:21:31;;;;;;;29.83;11.45;;;;;;;-5.32;68.46;100850.16;12205554;19;20287;-85
2024/01/10 07:25:33;;;;;;;28.38;11.50;;;;;;;-5.22;68.84;100847.59;12208849;19;20059;-85
2024/01/10 07:29:35;;;;;;;22.95;10.43;;;;;;;-5.15;68.85;100859.53;12185370;19;20015;-86
2024/01/10 07:33:37;;;;;;;35.33;12.27;;;;;;;-5.08;68.35;100862.63;12202588;19;20018;-87
2024/01/10 07:37:40;;;;;;;28.35;11.32;;;;;;;-5.00;68.32;100857.44;12203212;19;20010;-87
2024/01/10 07:41:42;;;;;;;30.60;10.38;;;;;;;-4.96;68.56;100874.22;12184160;19;20003;-87
2024/01/10 07:45:44;;;;;;;28.45;13.05;;;;;;;-4.95;67.89;100871.38;12204085;19;20007;-88
2024/01/10 07:49:45;;;;;;;32.92;11.45;;;;;;;-4.92;68.23;100876.50;12204944;19;20263;-86
2024/01/10 07:53:47;;;;;;;30.00;11.33;;;;;;;-4.87;68.36;100877.00;12184245;19;20007;-86
2024/01/10 07:57:50;;;;;;;28.65;11.60;;;;;;;-4.82;68.29;100876.59;12205830;19;20266;-87
2024/01/10 08:01:58;;;;;;;25.70;11.57;;;;;;;-4.73;68.38;100875.88;12208207;19;20007;-86
2024/01/10 08:06:00;;;;;;;25.58;12.25;;;;;;;-4.59;68.08;100893.56;12186998;19;20829;-87
2024/01/10 08:10:06;;;;;;;49.67;19.45;;;;;;;-4.47;67.89;100906.00;12210453;19;20010;-87
2024/01/10 08:14:08;;;;;;;34.05;12.23;;;;;;;-4.39;67.26;100900.00;12199307;19;20014;-87
2024/01/10 08:18:10;;;;;;;32.33;12.00;;;;;;;-4.28;67.15;100908.06;12213765;19;20018;-86
2024/01/10 08:22:13;;;;;;;27.48;12.23;;;;;;;-4.20;67.05;100904.69;12214896;19;20039;-87
2024/01/10 08:26:15;;;;;;;54.75;23.38;;;;;;;-4.05;66.78;100914.19;12193923;19;20014;-86
2024/01/10 08:30:17;;;;;;;44.15;18.20;;;;;;;-3.98;65.94;100919.94;12212922;19;20010;-86
2024/01/10 08:34:18;;;;;;;40.38;17.58;;;;;;;-3.91;65.92;100911.19;12212469;19;20014;-87
2024/01/10 08:38:20;;;;;;;33.13;13.43;;;;;;;-3.90;65.26;100898.56;12225129;19;20014;-85
2024/01/10 08:42:22;;;;;;;31.33;12.57;;;;;;;-3.86;65.67;100909.97;12234860;19;20725;-86
2024/01/10 08:46:27;;;;;;;29.92;12.32;;;;;;;-3.71;65.26;100914.06;12216153;19;20243;-87
2024/01/10 08:50:28;;;;;;;26.98;11.25;;;;;;;-3.53;65.00;100906.22;12195496;19;20068;-87
2024/01/10 08:54:30;;;;;;;29.40;12.13;;;;;;;-3.50;64.08;100914.06;12213603;19;20056;-85
2024/01/10 08:58:32;;;;;;;26.70;11.70;;;;;;;-3.46;64.14;100910.94;12217571;19;20002;-87
2024/01/10 09:02:36;;;;;;;31.93;11.27;;;;;;;-3.43;63.85;100915.22;12202760;19;20204;-87
2024/01/10 09:06:38;;;;;;;29.58;12.15;;;;;;;-3.35;63.69;100920.81;12215144;19;20038;-87
2024/01/10 09:10:40;;;;;;;26.13;11.03;;;;;;;-3.25;63.50;100920.84;12219382;19;20002;-87
2024/01/10 09:14:42;;;;;;;31.87;15.33;;;;;;;-3.12;63.28;100916.13;12193528;19;20006;-87
2024/01/10 09:18:44;;;;;;;28.47;12.03;;;;;;;-2.94;63.15;100912.78;12213384;19;20006;-85
2024/01/10 09:22:46;;;;;;;30.65;13.07;;;;;;;-2.76;62.15;100913.84;12213737;19;20505;-87
2024/01/10 09:26:48;;;;;;;18.23;8.13;;;;;;;-2.59;61.27;100907.81;12229139;19;20006;-84
2024/01/10 09:30:51;;;;;;;25.80;10.73;;;;;;;-2.43;61.05;100914.50;12231385;19;20031;-86
2024/01/10 09:34:53;;;;;;;26.67;11.75;;;;;;;-2.45;59.47;100911.94;12229344;19;20252;-87
2024/01/10 09:38:55;;;;;;;31.30;11.02;;;;;;;-2.41;59.72;100909.81;12198354;19;20062;-86
2024/01/10 09:42:57;;;;;;;21.93;8.00;;;;;;;-2.39;59.13;100915.94;12216906;19;20504;-86
2024/01/10 09:47:00;;;;;;;31.50;13.73;;;;;;;-2.28;59.16;100921.22;12221132;19;20018;-86
2024/01/10 09:51:03;;;;;;;28.77;11.27;;;;;;;-2.35;58.67;100920.94;12195960;19;20035;-85
2024/01/10 09:55:06;;;;;;;26.48;11.00;;;;;;;-2.29;58.82;100919.50;12231375;19;20482;-85
2024/01/10 09:59:10;;;;;;;27.63;11.50;;;;;;;-2.15;59.24;100907.44;12199775;19;20019;-84
2024/01/10 10:03:16;;;;;;;34.00;12.60;;;;;;;-2.14;58.36;100912.72;12223246;19;20127;-85
2024/01/10 10:07:18;;;;;;;28.98;11.60;;;;;;;-2.12;58.75;100901.75;12220423;19;20010;-85
2024/01/10 10:11:20;;;;;;;27.87;11.40;;;;;;;-2.00;58.22;100907.88;12200304;19;20053;-85
2024/01/10 10:15:25;;;;;;;27.10;11.63;;;;;;;-1.98;58.00;100909.44;12227274;19;20058;-86
2024/01/10 10:19:27;;;;;;;28.95;11.07;;;;;;;-1.78;58.51;100910.31;12238548;19;20247;-83
2024/01/10 10:23:42;;;;;;;39.17;15.77;;;;;;;-1.66;57.43;100902.91;12221162;19;20049;-84
2024/01/10 10:27:45;;;;;;;22.05;10.52;;;;;;;-1.62;57.32;100904.31;12227653;19;20043;-84
2024/01/10 10:31:50;;;;;;;30.33;11.25;;;;;;;-1.58;57.30;100897.59;12202844;19;20023;-83
2024/01/10 10:35:51;;;;;;;31.67;11.82;;;;;;;-1.55;57.01;100888.34;12184256;19;20125;-84
2024/01/10 10:39:54;;;;;;;38.53;14.85;;;;;;;-1.48;56.82;100901.16;12205422;19;20007;-84
2024/01/10 10:43:56;;;;;;;23.30;10.93;;;;;;;-1.36;57.57;100904.56;12205483;19;20010;-85
2024/01/10 10:47:59;;;;;;;;;;;;;;;-1.06;57.14;100894.50;12242551;19;20036;-84
2024/01/10 10:52:02;;;;;;;34.72;13.10;;;;;;;-0.81;56.32;100898.38;12228031;19;20387;-85
2024/01/10 10:56:07;;;;;;;31.58;11.60;;;;;;;-0.57;55.93;100895.97;12213379;19;20011;-85
2024/01/10 11:00:10;;;;;;;27.40;10.80;;;;;;;-0.36;55.29;100892.97;12212757;19;20025;-84
2024/01/10 11:04:13;;;;;;;26.88;12.07;;;;;;;-0.34;54.94;100888.28;12212795;19;20108;-85
2024/01/10 11:08:19;;;;;;;27.42;11.57;;;;;;;-0.22;54.69;100891.63;12186804;19;20019;-84
2024/01/10 11:12:55;;;;;;;26.45;11.55;;;;;;;-0.12;54.44;100889.72;12208163;19;20354;-84
2024/01/10 11:17:33;;;;;;;30.85;11.77;;;;;;;-0.25;53.79;100892.78;12203862;19;20010;-84
2024/01/10 11:22:05;;;;;;;31.63;12.20;;;;;;;-0.09;53.96;100894.81;12179455;19;20010;-84
2024/01/10 11:26:08;;;;;;;25.58;10.30;;;;;;;0.03;52.75;100872.88;12180027;19;20030;-84
2024/01/10 11:30:11;;;;;;;26.70;11.40;;;;;;;0.22;53.19;100870.88;12200931;19;20739;-83
2024/01/10 11:34:13;;;;;;;28.95;12.73;;;;;;;0.51;53.24;100868.91;12202285;19;20007;-82
2024/01/10 11:38:15;;;;;;;23.33;10.80;;;;;;;0.64;51.38;100863.88;12176414;19;20006;-85
2024/01/10 11:42:41;;;;;;;26.25;9.77;;;;;;;0.91;51.45;100868.28;12209202;19;20260;-85
2024/01/10 11:46:52;;;;;;;21.00;9.82;;;;;;;1.01;50.88;100865.44;12212746;19;20006;-84
2024/01/10 11:50:56;;;;;;;27.73;10.52;;;;;;;1.01;50.75;100860.00;12193865;19;20442;-84
2024/01/10 11:54:58;;;;;;;25.02;10.18;;;;;;;1.13;50.63;100854.16;12215361;19;20007;-84
2024/01/10 11:59:04;;;;;;;20.37;9.03;;;;;;;1.08;50.22;100856.50;12216962;19;20006;-84
2024/01/10 12:03:11;;;;;;;24.63;9.52;;;;;;;1.39;49.50;100855.09;12195961;19;20017;-85
2024/01/10 12:07:14;;;;;;;23.63;10.05;;;;;;;1.85;50.18;100847.41;12220966;19;20106;-85
2024/01/10 12:11:16;;;;;;;26.92;10.73;;;;;;;2.31;49.01;100848.59;12212289;19;20018;-86
2024/01/10 12:15:20;;;;;;;23.45;10.38;;;;;;;2.93;48.64;100846.09;12222201;19;20007;-86
2024/01/10 12:19:22;;;;;;;;;;;;;;;3.60;46.49;100837.50;12223917;19;20474;-86
2024/01/10 12:23:24;;;;;;;24.73;12.05;;;;;;;4.09;47.55;100828.94;12197236;19;20338;-86
2024/01/10 12:27:26;;;;;;;27.38;12.25;;;;;;;4.01;44.69;100826.28;12216824;19;20021;-84
2024/01/10 12:31:31;;;;;;;24.48;11.68;;;;;;;4.14;45.75;100833.03;12212447;19;20772;-85
2024/01/10 12:35:34;;;;;;;21.35;11.38;;;;;;;4.14;44.27;100825.69;12193553;19;20018;-85
2024/01/10 12:39:38;;;;;;;24.38;11.90;;;;;;;4.48;45.47;100827.09;12221690;19;20030;-83
2024/01/10 12:43:40;;;;;;;26.33;12.07;;;;;;;4.48;45.12;100833.38;12260047;19;20042;-83
2024/01/10 12:47:42;;;;;;;23.60;11.90;;;;;;;4.37;45.27;100822.91;12239926;19;20770;-83
2024/01/10 12:51:47;;;;;;;25.88;11.93;;;;;;;3.82;45.55;100840.41;12260560;19;20014;-84
2024/01/10 12:55:48;;;;;;;24.67;11.65;;;;;;;3.13;45.95;100835.66;12263752;19;21669;-84
2024/01/10 12:59:51;;;;;;;24.33;11.23;;;;;;;2.61;46.20;100836.16;12241137;19;19999;-85
2024/01/10 13:03:55;;;;;;;27.95;11.10;;;;;;;2.23;46.76;100838.59;12256138;19;20281;-84
2024/01/10 13:07:57;;;;;;;27.80;11.43;;;;;;;1.99;46.58;100824.97;12242121;19;20018;-85
2024/01/10 13:11:59;;;;;;;26.70;13.60;;;;;;;1.87;47.13;100824.44;12202307;19;20058;-84
2024/01/10 13:16:01;;;;;;;28.17;12.30;;;;;;;1.57;47.40;100818.63;12221660;19;20082;-85
2024/01/10 13:20:03;;;;;;;21.27;11.00;;;;;;;1.44;47.83;100817.44;12222558;19;20504;-86
2024/01/10 13:24:05;;;;;;;27.30;11.00;;;;;;;1.28;47.98;100816.38;12200515;19;20482;-84
2024/01/10 13:28:07;;;;;;;23.63;10.80;;;;;;;1.24;48.22;100820.41;12222142;19;20038;-85
2024/01/10 13:32:10;;;;;;;23.53;10.13;;;;;;;1.21;48.38;100825.31;12200929;19;20018;-85
2024/01/10 13:36:12;;;;;;;22.30;10.43;;;;;;;1.13;48.82;100818.88;12219980;19;20050;-85
2024/01/10 13:40:14;;;;;;;22.40;10.77;;;;;;;0.97;48.90;100828.78;12222238;19;20014;-84
2024/01/10 13:44:16;;;;;;;22.50;10.00;;;;;;;0.86;49.18;100827.19;12198000;19;20367;-85
2024/01/10 13:48:19;;;;;;;21.73;9.65;;;;;;;0.75;49.50;100839.19;12221125;19;20470;-85
2024/01/10 13:52:21;;;;;;;25.20;10.37;;;;;;;0.76;49.61;100838.19;12215422;19;20022;-86
2024/01/10 13:56:23;;;;;;;19.92;9.32;;;;;;;0.79;49.35;100837.84;12200575;19;20039;-86
2024/01/10 14:00:25;;;;;;;21.02;10.05;;;;;;;0.72;50.00;100827.84;12238755;19;20461;-84
2024/01/10 14:04:28;;;;;;;25.15;10.32;;;;;;;0.75;50.27;100828.34;12215822;19;20014;-84
2024/01/10 14:08:30;;;;;;;22.08;9.73;;;;;;;0.79;50.08;100815.31;12190620;19;20038;-85
2024/01/10 14:12:32;;;;;;;24.25;8.98;;;;;;;0.80;49.85;100825.97;12216304;19;20014;-85
2024/01/10 14:16:34;;;;;;;24.07;9.97;;;;;;;0.80;50.37;100820.56;12210440;19;20006;-83
2024/01/10 14:20:35;;;;;;;19.73;9.23;;;;;;;0.87;50.43;100826.22;12189378;19;20072;-86
2024/01/10 14:24:40;;;;;;;24.33;10.88;;;;;;;0.84;50.22;100830.09;12208109;19;20003;-84
2024/01/10 14:28:41;;;;;;;24.77;9.80;;;;;;;0.85;50.16;100841.78;12209498;19;20035;-85
2024/01/10 14:32:47;;;;;;;22.30;9.43;;;;;;;0.84;50.33;100837.38;12188018;19;20017;-85
2024/01/10 14:36:49;;;;;;;21.27;10.80;;;;;;;0.86;50.56;100838.06;12206846;19;20952;-85
2024/01/10 14:40:51;;;;;;;23.48;9.95;;;;;;;0.80;50.34;100836.84;12208533;19;20546;-86
2024/01/10 14:44:53;;;;;;;18.02;8.38;;;;;;;0.71;50.56;100845.94;12186718;19;20014;-86
2024/01/10 14:48:55;;;;;;;27.02;9.32;;;;;;;0.69;50.79;100850.69;12208538;19;21821;-85
2024/01/10 14:52:57;;;;;;;22.70;10.05;;;;;;;0.64;50.80;100847.59;12206527;19;20009;-85
2024/01/10 14:56:59;;;;;;;23.50;9.40;;;;;;;0.62;50.84;100846.91;12184790;19;20591;-84
2024/01/10 15:01:01;;;;;;;26.20;10.57;;;;;;;0.64;51.10;100856.59;12208858;19;20034;-85
2024/01/10 15:05:03;;;;;;;25.13;11.10;;;;;;;0.55;51.33;100848.56;12207297;19;20002;-85
2024/01/10 15:09:05;;;;;;;21.33;9.50;;;;;;;0.44;51.77;100849.66;12185063;19;20015;-86
2024/01/10 15:13:07;;;;;;;27.38;9.43;;;;;;;0.37;51.86;100854.88;12204886;19;20468;-84
2024/01/10 15:17:09;;;;;;;15.53;7.47;;;;;;;0.28;52.36;100860.41;12186382;19;20021;-85
2024/01/10 15:21:13;;;;;;;20.67;9.77;;;;;;;0.13;52.78;100865.53;12214978;19;20010;-85
2024/01/10 15:25:14;;;;;;;14.80;7.15;;;;;;;-0.04;53.47;100869.94;12219299;19;20376;-85
2024/01/10 15:29:16;;;;;;;22.33;9.67;;;;;;;-0.21;53.54;100871.63;12220224;19;20047;-84
2024/01/10 15:33:18;;;;;;;22.80;9.63;;;;;;;-0.36;53.80;100876.72;12218936;19;20030;-85
2024/01/10 15:37:20;;;;;;;27.25;9.48;;;;;;;-0.50;54.87;100885.41;12222140;19;20024;-86
2024/01/10 15:41:22;;;;;;;18.50;7.90;;;;;;;-0.63;55.17;100884.88;12197947;19;20541;-85
2024/01/10 15:45:25;;;;;;;23.63;9.83;;;;;;;-0.76;55.65;100887.97;12215579;19;20006;-84
2024/01/10 15:49:27;;;;;;;21.10;8.98;;;;;;;-0.87;56.42;100894.41;12216424;19;20572;-84
2024/01/10 15:53:29;;;;;;;23.98;9.93;;;;;;;-0.99;57.00;100891.03;12191768;19;20039;-84
2024/01/10 15:57:31;;;;;;;28.65;12.18;;;;;;;-1.11;57.43;100905.75;12214378;19;20379;-85
2024/01/10 16:01:34;;;;;;;20.33;9.02;;;;;;;-1.23;57.87;100909.63;12215854;19;20010;-85
2024/01/10 16:05:36;;;;;;;17.70;9.25;;;;;;;-1.34;58.59;100899.81;12190719;19;20026;-84
2024/01/10 16:09:38;;;;;;;;;;;;;;;-1.46;59.49;100918.09;12215844;19;20680;-84
2024/01/10 16:13:40;;;;;;;20.42;8.63;;;;;;;-1.56;59.72;100919.94;12209614;19;19922;-84
2024/01/10 16:17:42;;;;;;;19.55;8.32;;;;;;;-1.67;60.33;100920.94;12192570;19;20022;-85
2024/01/10 16:21:45;;;;;;;24.33;10.03;;;;;;;-1.76;60.53;100918.25;12211308;19;20074;-84
2024/01/10 16:25:47;;;;;;;110.55;33.80;;;;;;;-1.87;61.05;100927.38;12215548;19;20077;-84
2024/01/10 16:29:50;;;;;;;39.53;13.83;;;;;;;-1.96;61.37;100923.66;12189612;19;20018;-84
2024/01/10 16:33:51;;;;;;;39.30;14.95;;;;;;;-2.03;61.49;100927.91;12214331;19;20713;-84
2024/01/10 16:37:54;;;;;;;26.40;12.87;;;;;;;-2.14;61.53;100918.13;12217437;19;20749;-85
2024/01/10 16:41:55;;;;;;;25.73;10.75;;;;;;;-2.23;62.24;100923.47;12213909;19;20034;-85
2024/01/10 16:45:57;;;;;;;50.10;21.73;;;;;;;-2.30;62.76;100926.75;12265249;19;20007;-83
2024/01/10 16:50:00;;;;;;;27.65;10.52;;;;;;;-2.34;62.70;100933.41;12263861;19;20010;-84
2024/01/10 16:54:03;;;;;;;35.90;13.48;;;;;;;-2.41;63.48;100934.97;12197891;19;20046;-84
2024/01/10 16:58:04;;;;;;;27.98;11.70;;;;;;;-2.44;63.88;100934.38;12206242;19;20031;-84
2024/01/10 17:02:07;;;;;;;35.23;17.23;;;;;;;-2.49;64.43;100929.41;12196624;19;20014;-84
2024/01/10 17:06:09;;;;;;;46.95;22.85;;;;;;;-2.53;64.44;100926.13;12210881;19;20035;-85
2024/01/10 17:10:11;;;;;;;25.08;13.50;;;;;;;-2.57;65.10;100924.69;12205950;19;20967;-84
2024/01/10 17:14:16;;;;;;;28.13;11.47;;;;;;;-2.63;65.69;100935.19;12186929;19;20022;-84
2024/01/10 17:18:18;;;;;;;36.63;16.23;;;;;;;-2.72;65.90;100936.84;12209502;19;20478;-85
2024/01/10 17:22:20;;;;;;;29.88;13.43;;;;;;;-2.74;66.79;100944.22;12210152;19;20521;-85
2024/01/10 17:26:22;;;;;;;32.83;14.90;;;;;;;-2.76;67.04;100946.22;12191913;19;20014;-85
2024/01/10 17:30:25;;;;;;;32.97;14.00;;;;;;;-2.81;67.47;100943.91;12221967;19;20070;-84
2024/01/10 17:34:29;;;;;;;31.52;14.15;;;;;;;-2.83;68.06;100939.66;12230073;19;20010;-84
2024/01/10 17:38:31;;;;;;;34.42;14.40;;;;;;;-2.86;67.34;100945.31;12201602;19;20022;-85
2024/01/10 17:42:33;;;;;;;35.03;15.48;;;;;;;-2.90;68.14;100946.59;12216312;19;20023;-85
2024/01/10 17:46:35;;;;;;;40.53;17.70;;;;;;;-2.88;68.79;100944.63;12214538;19;20010;-85
2024/01/10 17:50:38;;;;;;;27.02;11.55;;;;;;;-2.89;68.37;100954.53;12192920;19;20011;-85
2024/01/10 17:54:40;;;;;;;37.03;16.23;;;;;;;-2.94;69.00;100953.25;12208869;19;20105;-85
2024/01/10 17:58:42;;;;;;;30.67;12.77;;;;;;;-3.03;69.46;100960.31;12213557;19;20011;-85
2024/01/10 18:02:44;;;;;;;36.47;14.27;;;;;;;-3.09;69.68;100967.06;12189786;19;20135;-84
2024/01/10 18:06:46;;;;;;;35.97;14.10;;;;;;;-3.14;70.24;100960.38;12210399;19;20026;-83
2024/01/10 18:10:51;;;;;;;40.37;18.57;;;;;;;-3.18;71.14;100953.50;12212203;19;20017;-84
2024/01/10 18:14:53;;;;;;;36.25;13.73;;;;;;;-3.24;70.71;100950.38;12188348;19;20015;-85
2024/01/10 18:18:55;;;;;;;30.35;13.52;;;;;;;-3.30;72.04;100961.69;12209501;19;20018;-83